Time;durP1;ratioP1;P1;durP2;ratioP2;P2;SDS_P1;SDS_P2;PMS_P1;PMS_P2;Temp;Humidity;BMP_temperature;BMP_pressure;BME280_temperature;BME280_humidity;BME280_pressure;Samples;Min_cycle;Max_cycle;Signal;HPM_P1;HPM_P2
2023/04/20 00:02:08;;;;;;;13.10;12.40;;;;;;;;;;5046356;28;20025;-66
2023/04/20 00:04:33;;;;;;;12.68;12.07;;;;;;;;;;5050486;28;20021;-66
2023/04/20 00:06:59;;;;;;;12.10;11.50;;;;;;;;;;5052784;28;20431;-66
2023/04/20 00:09:25;;;;;;;11.77;11.27;;;;;;;;;;5052626;28;20028;-66
2023/04/20 00:11:51;;;;;;;12.20;11.60;;;;;;;;;;5057552;28;20166;-66
2023/04/20 00:14:16;;;;;;;12.00;11.40;;;;;;;;;;5046868;28;20111;-66
2023/04/20 00:16:41;;;;;;;11.63;11.13;;;;;;;;;;5048388;28;20021;-65
2023/04/20 00:19:07;;;;;;;12.43;11.82;;;;;;;;;;5052533;28;20025;-66
2023/04/20 00:21:33;;;;;;;11.82;11.23;;;;;;;;;;5051788;28;20052;-66
2023/04/20 00:23:58;;;;;;;12.23;11.63;;;;;;;;;;5052538;28;20021;-66
2023/04/20 00:26:23;;;;;;;13.23;12.52;;;;;;;;;;5049756;28;20554;-66
2023/04/20 00:28:49;;;;;;;11.85;11.27;;;;;;;;;;5041020;28;20032;-65
2023/04/20 00:31:15;;;;;;;12.93;12.23;;;;;;;;;;5041261;28;20025;-66
2023/04/20 00:33:40;;;;;;;12.07;11.48;;;;;;;;;;5052064;28;20499;-66
2023/04/20 00:36:05;;;;;;;12.32;11.73;;;;;;;;;;5052019;28;20020;-66
2023/04/20 00:38:30;;;;;;;11.70;11.20;;;;;;;;;;5052265;28;20083;-66
2023/04/20 00:40:56;;;;;;;12.00;11.40;;;;;;;;;;5052040;28;20119;-65
2023/04/20 00:43:21;;;;;;;13.07;12.38;;;;;;;;;;5045743;28;20435;-66
2023/04/20 00:45:47;;;;;;;12.20;11.60;;;;;;;;;;5040612;28;20468;-66
2023/04/20 00:48:13;;;;;;;12.70;12.05;;;;;;;;;;5051136;28;20057;-66
2023/04/20 00:50:39;;;;;;;12.55;11.95;;;;;;;;;;5051820;28;20389;-66
2023/04/20 00:53:05;;;;;;;12.13;11.52;;;;;;;;;;5051746;28;20024;-66
2023/04/20 00:55:31;;;;;;;12.52;11.93;;;;;;;;;;5051803;28;20044;-66
2023/04/20 00:57:57;;;;;;;13.20;12.50;;;;;;;;;;5049237;28;20020;-66
2023/04/20 01:00:22;;;;;;;12.35;11.75;;;;;;;;;;5045509;28;20045;-66
2023/04/20 01:02:48;;;;;;;12.15;11.55;;;;;;;;;;5050412;28;20017;-66
2023/04/20 01:05:13;;;;;;;11.90;11.30;;;;;;;;;;5051056;28;20024;-66
2023/04/20 01:07:38;;;;;;;12.10;11.50;;;;;;;;;;5051730;28;20044;-65
2023/04/20 01:10:07;;;;;;;12.65;12.05;;;;;;;;;;5054271;28;20024;-66
2023/04/20 01:12:32;;;;;;;11.55;11.05;;;;;;;;;;5050447;28;20022;-66
2023/04/20 01:14:58;;;;;;;12.40;11.80;;;;;;;;;;5046396;28;20025;-66
2023/04/20 01:17:23;;;;;;;12.18;11.57;;;;;;;;;;5043215;28;20546;-66
2023/04/20 01:19:49;;;;;;;12.10;11.50;;;;;;;;;;5051379;28;20021;-66
2023/04/20 01:22:18;;;;;;;12.85;12.15;;;;;;;;;;5050380;28;20132;-66
2023/04/20 01:24:44;;;;;;;12.70;12.07;;;;;;;;;;5051479;28;20017;-66
2023/04/20 01:27:10;;;;;;;12.80;12.10;;;;;;;;;;5051642;28;20028;-66
2023/04/20 01:29:35;;;;;;;12.05;11.45;;;;;;;;;;5052410;28;20029;-67
2023/04/20 01:32:01;;;;;;;12.30;11.70;;;;;;;;;;5051372;28;20036;-66
2023/04/20 01:34:26;;;;;;;11.77;11.25;;;;;;;;;;5038660;28;20384;-66
2023/04/20 01:36:51;;;;;;;12.30;11.70;;;;;;;;;;5050131;28;20017;-66
2023/04/20 01:39:17;;;;;;;12.43;11.82;;;;;;;;;;5046185;28;20025;-66
2023/04/20 01:41:42;;;;;;;11.98;11.38;;;;;;;;;;5050934;28;20021;-66
2023/04/20 01:44:07;;;;;;;12.10;11.50;;;;;;;;;;5049903;28;20520;-66
2023/04/20 01:46:35;;;;;;;12.10;11.50;;;;;;;;;;5051348;28;20013;-66
2023/04/20 01:49:01;;;;;;;12.20;11.60;;;;;;;;;;5040031;28;20500;-67
2023/04/20 01:51:26;;;;;;;12.43;11.82;;;;;;;;;;5051441;28;20032;-65
2023/04/20 01:53:52;;;;;;;12.43;11.82;;;;;;;;;;5054567;28;20036;-66
2023/04/20 01:56:17;;;;;;;12.35;11.75;;;;;;;;;;5053492;28;20052;-66
2023/04/20 01:58:42;;;;;;;12.23;11.63;;;;;;;;;;5055142;28;20028;-66
2023/04/20 02:01:08;;;;;;;12.75;12.05;;;;;;;;;;5054928;28;20457;-66
2023/04/20 02:03:33;;;;;;;11.90;11.30;;;;;;;;;;5055399;28;20067;-66
2023/04/20 02:05:58;;;;;;;11.55;11.05;;;;;;;;;;5043801;28;20075;-66
2023/04/20 02:08:24;;;;;;;12.10;11.50;;;;;;;;;;5051663;28;20021;-66
2023/04/20 02:10:49;;;;;;;11.95;11.35;;;;;;;;;;5057392;28;20016;-65
2023/04/20 02:13:14;;;;;;;12.20;11.60;;;;;;;;;;5053357;28;20032;-65
2023/04/20 02:15:40;;;;;;;12.20;11.60;;;;;;;;;;5054780;28;20107;-65
2023/04/20 02:18:05;;;;;;;12.10;11.50;;;;;;;;;;5054837;28;20021;-65
2023/04/20 02:20:30;;;;;;;12.65;12.00;;;;;;;;;;5059403;28;20429;-65
2023/04/20 02:22:56;;;;;;;12.20;11.60;;;;;;;;;;5052855;28;20036;-65
2023/04/20 02:25:21;;;;;;;11.85;11.27;;;;;;;;;;5054624;28;20017;-65
2023/04/20 02:27:46;;;;;;;12.30;11.70;;;;;;;;;;5054382;28;20112;-66
2023/04/20 02:30:12;;;;;;;12.20;11.60;;;;;;;;;;5053569;28;20064;-65
2023/04/20 02:32:37;;;;;;;12.10;11.50;;;;;;;;;;5054881;28;20028;-66
2023/04/20 02:35:03;;;;;;;11.90;11.30;;;;;;;;;;5045629;28;20021;-67
2023/04/20 02:37:29;;;;;;;12.95;12.25;;;;;;;;;;5052933;28;20032;-66
2023/04/20 02:39:54;;;;;;;11.90;11.30;;;;;;;;;;5052708;28;20029;-66
2023/04/20 02:42:20;;;;;;;12.25;11.65;;;;;;;;;;5054313;28;20040;-66
2023/04/20 02:44:45;;;;;;;12.93;12.23;;;;;;;;;;5054066;28;20017;-66
2023/04/20 02:47:10;;;;;;;12.73;12.10;;;;;;;;;;5053323;28;20025;-66
2023/04/20 02:49:36;;;;;;;12.45;11.85;;;;;;;;;;5054061;28;20021;-66
2023/04/20 02:52:01;;;;;;;12.13;11.52;;;;;;;;;;5039465;28;20025;-66
2023/04/20 02:54:26;;;;;;;12.07;11.48;;;;;;;;;;5050333;28;20102;-65
2023/04/20 02:56:51;;;;;;;13.05;12.35;;;;;;;;;;5052545;28;20495;-65
2023/04/20 02:59:17;;;;;;;12.27;11.68;;;;;;;;;;5049219;28;20025;-66
2023/04/20 03:01:42;;;;;;;11.68;11.18;;;;;;;;;;5053609;28;20048;-66
2023/04/20 03:04:07;;;;;;;12.10;11.50;;;;;;;;;;5048212;28;20021;-64
2023/04/20 03:06:35;;;;;;;12.85;12.18;;;;;;;;;;5033565;28;20034;-65
2023/04/20 03:09:00;;;;;;;12.30;11.70;;;;;;;;;;5048500;28;20021;-65
2023/04/20 03:11:26;;;;;;;12.10;11.50;;;;;;;;;;5060537;28;20104;-66
2023/04/20 03:13:51;;;;;;;12.43;11.82;;;;;;;;;;5053804;28;20112;-65
2023/04/20 03:16:17;;;;;;;12.68;12.02;;;;;;;;;;5040132;28;20020;-65
2023/04/20 03:18:42;;;;;;;12.35;11.75;;;;;;;;;;5050172;28;20025;-65
2023/04/20 03:21:07;;;;;;;12.40;11.80;;;;;;;;;;5052129;28;20013;-65
2023/04/20 03:23:33;;;;;;;12.02;11.43;;;;;;;;;;5052228;28;20499;-65
2023/04/20 03:25:58;;;;;;;12.32;11.73;;;;;;;;;;5053229;28;20025;-65
2023/04/20 03:28:23;;;;;;;12.05;11.45;;;;;;;;;;5053546;28;20362;-65
2023/04/20 03:30:49;;;;;;;12.07;11.48;;;;;;;;;;5053276;28;20013;-65
2023/04/20 03:33:14;;;;;;;12.23;11.63;;;;;;;;;;5048894;28;20021;-65
2023/04/20 03:35:41;;;;;;;12.75;12.05;;;;;;;;;;5057770;28;20104;-65
2023/04/20 03:38:07;;;;;;;12.45;11.85;;;;;;;;;;5052279;28;20396;-65
2023/04/20 03:40:32;;;;;;;12.98;12.27;;;;;;;;;;5047445;28;20025;-66
2023/04/20 03:42:57;;;;;;;12.82;12.13;;;;;;;;;;5057042;28;20492;-68
2023/04/20 03:45:22;;;;;;;11.90;11.30;;;;;;;;;;5051994;28;20534;-65
2023/04/20 03:47:48;;;;;;;12.38;11.77;;;;;;;;;;5043840;28;20057;-67
2023/04/20 03:50:13;;;;;;;11.93;11.32;;;;;;;;;;5052282;28;20100;-66
2023/04/20 03:52:39;;;;;;;13.05;12.35;;;;;;;;;;5047475;28;20029;-66
2023/04/20 03:55:05;;;;;;;12.63;12.00;;;;;;;;;;5050166;28;20542;-65
2023/04/20 03:57:31;;;;;;;12.82;12.13;;;;;;;;;;5050675;28;20033;-66
2023/04/20 03:59:57;;;;;;;12.38;11.77;;;;;;;;;;5051503;28;20021;-66
2023/04/20 04:02:22;;;;;;;13.70;12.90;;;;;;;;;;5046834;28;20033;-66
2023/04/20 04:04:47;;;;;;;13.35;12.65;;;;;;;;;;5052369;28;20066;-65
2023/04/20 04:07:13;;;;;;;13.13;12.43;;;;;;;;;;5035424;28;20022;-68
2023/04/20 04:09:38;;;;;;;12.30;11.70;;;;;;;;;;5044529;28;20025;-66
2023/04/20 04:12:05;;;;;;;12.95;12.25;;;;;;;;;;5040980;28;20476;-66
2023/04/20 04:14:31;;;;;;;12.50;11.90;;;;;;;;;;5051307;28;20155;-65
2023/04/20 04:16:57;;;;;;;12.90;12.20;;;;;;;;;;5046180;28;20024;-66
2023/04/20 04:19:22;;;;;;;12.10;11.50;;;;;;;;;;5050776;28;20025;-65
2023/04/20 04:21:47;;;;;;;12.70;12.07;;;;;;;;;;5042998;28;20017;-66
2023/04/20 04:24:13;;;;;;;12.48;11.88;;;;;;;;;;5049911;28;20472;-66
2023/04/20 04:26:38;;;;;;;12.90;12.20;;;;;;;;;;5043841;28;20013;-66
2023/04/20 04:29:03;;;;;;;13.13;12.43;;;;;;;;;;5051237;28;20051;-66
2023/04/20 04:31:31;;;;;;;13.13;12.43;;;;;;;;;;5046652;28;20025;-67
2023/04/20 04:33:56;;;;;;;13.63;12.85;;;;;;;;;;5041646;28;20108;-67
2023/04/20 04:36:23;;;;;;;12.93;12.23;;;;;;;;;;5042389;28;20068;-67
2023/04/20 04:38:48;;;;;;;12.70;12.05;;;;;;;;;;5048336;28;20118;-65
2023/04/20 04:41:14;;;;;;;12.90;12.20;;;;;;;;;;5045608;28;20489;-66
2023/04/20 04:43:39;;;;;;;13.05;12.35;;;;;;;;;;5045086;28;20029;-66
2023/04/20 04:46:07;;;;;;;12.93;12.23;;;;;;;;;;5041158;28;20527;-67
2023/04/20 04:48:34;;;;;;;13.00;12.30;;;;;;;;;;5042710;28;20037;-65
2023/04/20 04:50:59;;;;;;;13.20;12.50;;;;;;;;;;5046619;28;20049;-65
2023/04/20 04:53:25;;;;;;;12.25;11.65;;;;;;;;;;5044176;28;20040;-65
2023/04/20 04:55:50;;;;;;;12.38;11.77;;;;;;;;;;5056478;28;20071;-66
2023/04/20 04:58:15;;;;;;;13.50;12.73;;;;;;;;;;5050972;28;20528;-65
2023/04/20 05:00:41;;;;;;;13.48;12.70;;;;;;;;;;5051103;28;20044;-65
2023/04/20 05:03:06;;;;;;;12.73;12.05;;;;;;;;;;5050537;28;20074;-65
2023/04/20 05:05:31;;;;;;;12.43;11.82;;;;;;;;;;5044961;28;20025;-65
2023/04/20 05:07:57;;;;;;;12.50;11.90;;;;;;;;;;5043891;28;20030;-65
2023/04/20 05:10:22;;;;;;;12.23;11.63;;;;;;;;;;5042614;28;20032;-66
2023/04/20 05:12:47;;;;;;;12.73;12.02;;;;;;;;;;5046758;28;20396;-66
2023/04/20 05:15:13;;;;;;;12.88;12.18;;;;;;;;;;5050712;28;20028;-66
2023/04/20 05:17:38;;;;;;;13.07;12.38;;;;;;;;;;5045960;28;20025;-66
2023/04/20 05:20:05;;;;;;;13.32;12.63;;;;;;;;;;5050095;28;20062;-66
2023/04/20 05:22:30;;;;;;;13.00;12.30;;;;;;;;;;5049862;28;20017;-65
2023/04/20 05:24:56;;;;;;;12.95;12.27;;;;;;;;;;5049262;28;20028;-63
2023/04/20 05:27:21;;;;;;;13.05;12.35;;;;;;;;;;5037352;28;20094;-64
2023/04/20 05:29:46;;;;;;;13.15;12.45;;;;;;;;;;5039128;28;20016;-65
2023/04/20 05:32:12;;;;;;;15.02;14.13;;;;;;;;;;5044805;28;20382;-64
2023/04/20 05:34:37;;;;;;;12.90;12.20;;;;;;;;;;5034218;28;20036;-64
2023/04/20 05:37:05;;;;;;;13.52;12.73;;;;;;;;;;5043839;28;20448;-65
2023/04/20 05:39:30;;;;;;;13.25;12.55;;;;;;;;;;5035806;28;20029;-65
2023/04/20 05:41:56;;;;;;;13.10;12.40;;;;;;;;;;5044059;28;20036;-64
2023/04/20 05:44:22;;;;;;;13.18;12.48;;;;;;;;;;5053155;28;20052;-64
2023/04/20 05:46:47;;;;;;;13.60;12.85;;;;;;;;;;5042376;28;20383;-64
2023/04/20 05:49:13;;;;;;;13.35;12.65;;;;;;;;;;5045125;28;20025;-64
2023/04/20 05:51:38;;;;;;;12.85;12.15;;;;;;;;;;5049855;28;20029;-64
2023/04/20 05:54:03;;;;;;;12.63;11.98;;;;;;;;;;5042785;28;20021;-64
2023/04/20 05:56:29;;;;;;;12.85;12.15;;;;;;;;;;5045303;28;20037;-63
2023/04/20 05:58:55;;;;;;;13.00;12.30;;;;;;;;;;5049820;28;20033;-63
2023/04/20 06:01:20;;;;;;;13.10;12.40;;;;;;;;;;5045523;28;20045;-66
2023/04/20 06:03:47;;;;;;;12.80;12.10;;;;;;;;;;5051930;28;20029;-63
2023/04/20 06:06:13;;;;;;;13.48;12.75;;;;;;;;;;5048928;28;20040;-63
2023/04/20 06:08:38;;;;;;;13.20;12.50;;;;;;;;;;5053524;28;20025;-64
2023/04/20 06:11:04;;;;;;;13.05;12.35;;;;;;;;;;5058346;28;20013;-64
2023/04/20 06:13:29;;;;;;;12.90;12.23;;;;;;;;;;5053601;28;20464;-64
2023/04/20 06:15:54;;;;;;;12.70;12.05;;;;;;;;;;5043289;28;20553;-66
2023/04/20 06:18:20;;;;;;;15.15;14.15;;;;;;;;;;5044305;28;20025;-66
2023/04/20 06:20:45;;;;;;;13.63;12.82;;;;;;;;;;5043578;28;20423;-65
2023/04/20 06:23:11;;;;;;;14.02;13.23;;;;;;;;;;5048885;28;20013;-66
2023/04/20 06:25:36;;;;;;;14.02;13.23;;;;;;;;;;5050352;28;20021;-62
2023/04/20 06:28:05;;;;;;;14.18;13.32;;;;;;;;;;5047723;28;20031;-63
2023/04/20 06:30:32;;;;;;;13.75;12.95;;;;;;;;;;5049267;28;20036;-63
2023/04/20 06:32:58;;;;;;;13.32;12.60;;;;;;;;;;5050074;28;20036;-62
2023/04/20 06:35:23;;;;;;;13.90;13.10;;;;;;;;;;5044434;28;20044;-65
2023/04/20 06:37:49;;;;;;;14.48;13.57;;;;;;;;;;5042662;28;20028;-62
2023/04/20 06:40:14;;;;;;;13.88;13.07;;;;;;;;;;5043463;28;20116;-64
2023/04/20 06:42:40;;;;;;;14.32;13.45;;;;;;;;;;5050444;28;20120;-62
2023/04/20 06:45:05;;;;;;;14.02;13.23;;;;;;;;;;5038895;28;20033;-63
2023/04/20 06:47:32;;;;;;;13.02;12.32;;;;;;;;;;5039856;28;20029;-63
2023/04/20 06:49:58;;;;;;;14.95;14.05;;;;;;;;;;5045066;28;20033;-63
2023/04/20 06:52:23;;;;;;;13.10;12.40;;;;;;;;;;5039704;28;22050;-66
2023/04/20 06:54:48;;;;;;;14.00;13.20;;;;;;;;;;5045517;28;20060;-65
2023/04/20 06:57:14;;;;;;;14.63;13.73;;;;;;;;;;5043243;28;20080;-64
2023/04/20 06:59:39;;;;;;;14.43;13.55;;;;;;;;;;5041311;28;20458;-63
2023/04/20 07:02:05;;;;;;;14.52;13.63;;;;;;;;;;5038307;28;20138;-66
2023/04/20 07:04:30;;;;;;;14.45;13.55;;;;;;;;;;5035536;28;20105;-64
2023/04/20 07:06:55;;;;;;;13.30;12.60;;;;;;;;;;5038916;28;20035;-63
2023/04/20 07:09:21;;;;;;;13.15;12.45;;;;;;;;;;5046038;28;20029;-64
2023/04/20 07:11:47;;;;;;;13.85;13.05;;;;;;;;;;5044228;28;20103;-64
2023/04/20 07:14:12;;;;;;;13.80;13.00;;;;;;;;;;5044392;28;20016;-64
2023/04/20 07:16:37;;;;;;;13.80;13.00;;;;;;;;;;5040588;28;20603;-64
2023/04/20 07:19:03;;;;;;;13.82;13.02;;;;;;;;;;5040414;28;20112;-65
2023/04/20 07:21:29;;;;;;;14.32;13.52;;;;;;;;;;5046038;28;20068;-64
2023/04/20 07:23:57;;;;;;;14.32;13.45;;;;;;;;;;5044797;28;20055;-65
2023/04/20 07:26:22;;;;;;;14.23;13.38;;;;;;;;;;5045606;28;20672;-65
2023/04/20 07:28:47;;;;;;;14.70;13.80;;;;;;;;;;5053474;28;20049;-64
2023/04/20 07:31:13;;;;;;;14.73;13.82;;;;;;;;;;5043279;28;20091;-64
2023/04/20 07:33:38;;;;;;;14.25;13.45;;;;;;;;;;5042645;28;20017;-63
2023/04/20 07:36:05;;;;;;;14.13;13.32;;;;;;;;;;5038607;28;20381;-65
2023/04/20 07:38:30;;;;;;;14.45;13.55;;;;;;;;;;5042229;28;20027;-64
2023/04/20 07:40:56;;;;;;;13.82;13.05;;;;;;;;;;5044714;28;20028;-65
2023/04/20 07:43:21;;;;;;;14.27;13.48;;;;;;;;;;5046722;28;20025;-63
2023/04/20 07:45:47;;;;;;;14.05;13.25;;;;;;;;;;5052068;28;20497;-65
2023/04/20 07:48:12;;;;;;;14.82;13.93;;;;;;;;;;5048557;28;20009;-63
2023/04/20 07:50:38;;;;;;;14.23;13.43;;;;;;;;;;5048703;28;20036;-64
2023/04/20 07:53:03;;;;;;;14.45;13.65;;;;;;;;;;5043933;28;20028;-62
2023/04/20 07:55:28;;;;;;;13.60;12.85;;;;;;;;;;5051786;28;20029;-63
2023/04/20 07:57:54;;;;;;;13.77;12.98;;;;;;;;;;5047571;28;20041;-63
2023/04/20 08:00:19;;;;;;;14.10;13.30;;;;;;;;;;5051833;28;20523;-64
2023/04/20 08:02:44;;;;;;;13.93;13.13;;;;;;;;;;5049275;28;20027;-66
2023/04/20 08:05:10;;;;;;;13.45;12.75;;;;;;;;;;5050871;28;20033;-63
2023/04/20 08:07:35;;;;;;;14.93;14.02;;;;;;;;;;5049639;28;20078;-64
2023/04/20 08:10:01;;;;;;;14.68;13.82;;;;;;;;;;5048695;28;20028;-64
2023/04/20 08:12:27;;;;;;;14.23;13.43;;;;;;;;;;5051594;28;20082;-62
2023/04/20 08:14:52;;;;;;;13.70;12.95;;;;;;;;;;5049343;28;20020;-64
2023/04/20 08:17:17;;;;;;;14.18;13.38;;;;;;;;;;5051307;28;20040;-64
2023/04/20 08:19:43;;;;;;;14.45;13.65;;;;;;;;;;5044942;28;20449;-63
2023/04/20 08:22:11;;;;;;;13.32;12.63;;;;;;;;;;5044548;28;20032;-65
2023/04/20 08:24:36;;;;;;;14.07;13.27;;;;;;;;;;5049194;28;20051;-64
2023/04/20 08:27:01;;;;;;;14.57;13.77;;;;;;;;;;5038567;28;20484;-64
2023/04/20 08:29:26;;;;;;;14.30;13.50;;;;;;;;;;5050889;28;20021;-65
2023/04/20 08:31:52;;;;;;;13.43;12.73;;;;;;;;;;5043980;28;20024;-65
2023/04/20 08:34:17;;;;;;;13.90;13.10;;;;;;;;;;5046241;28;20475;-66
2023/04/20 08:36:42;;;;;;;14.07;13.27;;;;;;;;;;5051342;28;20028;-64
2023/04/20 08:39:10;;;;;;;14.18;13.38;;;;;;;;;;5040751;28;20504;-64
2023/04/20 08:41:35;;;;;;;14.23;13.43;;;;;;;;;;5038383;28;20028;-64
2023/04/20 08:44:01;;;;;;;14.48;13.68;;;;;;;;;;5040652;28;20027;-63
2023/04/20 08:46:26;;;;;;;14.70;13.82;;;;;;;;;;5049861;28;20024;-64
2023/04/20 08:48:54;;;;;;;14.23;13.43;;;;;;;;;;5054022;28;20025;-64
2023/04/20 08:51:20;;;;;;;13.95;13.15;;;;;;;;;;5043326;28;20056;-63
2023/04/20 08:53:45;;;;;;;13.95;13.15;;;;;;;;;;5052238;28;20101;-64
2023/04/20 08:56:11;;;;;;;14.18;13.38;;;;;;;;;;5052689;28;20033;-65
2023/04/20 08:58:41;;;;;;;13.80;13.02;;;;;;;;;;5036947;28;20022;-65
2023/04/20 09:01:06;;;;;;;13.35;12.65;;;;;;;;;;5036055;28;20049;-64
2023/04/20 09:03:35;;;;;;;14.38;13.57;;;;;;;;;;5042304;28;20365;-63
2023/04/20 09:06:00;;;;;;;14.40;13.60;;;;;;;;;;5041895;28;20472;-63
2023/04/20 09:08:36;;;;;;;13.23;12.52;;;;;;;;;;5049608;28;20032;-64
2023/04/20 09:11:01;;;;;;;14.13;13.32;;;;;;;;;;5042184;28;20075;-64
2023/04/20 09:13:26;;;;;;;13.93;13.13;;;;;;;;;;5031011;28;20021;-64
2023/04/20 09:15:52;;;;;;;13.38;12.68;;;;;;;;;;5033328;28;20033;-64
2023/04/20 09:18:17;;;;;;;14.48;13.65;;;;;;;;;;5043474;28;20029;-63
2023/04/20 09:20:43;;;;;;;13.90;13.10;;;;;;;;;;5047255;28;20099;-63
2023/04/20 09:23:18;;;;;;;14.45;13.65;;;;;;;;;;5044668;28;20033;-65
2023/04/20 09:25:45;;;;;;;13.82;13.05;;;;;;;;;;5052921;28;20036;-64
2023/04/20 09:28:12;;;;;;;14.93;14.02;;;;;;;;;;5056510;28;20016;-66
2023/04/20 09:30:47;;;;;;;14.27;13.48;;;;;;;;;;5047051;28;20040;-64
2023/04/20 09:33:13;;;;;;;14.85;13.95;;;;;;;;;;5038494;28;20408;-65
2023/04/20 09:35:42;;;;;;;15.63;14.63;;;;;;;;;;5047780;28;20078;-64
2023/04/20 09:38:08;;;;;;;15.25;14.35;;;;;;;;;;5047046;28;20025;-66
2023/04/20 09:40:33;;;;;;;14.45;13.63;;;;;;;;;;5045981;28;20025;-62
2023/04/20 09:43:02;;;;;;;14.13;13.32;;;;;;;;;;5052526;28;20540;-63
2023/04/20 09:45:28;;;;;;;14.55;13.70;;;;;;;;;;5042788;28;20035;-63
2023/04/20 09:47:53;;;;;;;13.73;13.00;;;;;;;;;;5038320;28;20025;-63
2023/04/20 09:50:19;;;;;;;13.90;13.10;;;;;;;;;;5042589;28;20456;-63
2023/04/20 09:52:47;;;;;;;13.43;12.73;;;;;;;;;;5043811;28;20029;-62
2023/04/20 09:55:13;;;;;;;13.18;12.48;;;;;;;;;;5037912;28;20026;-63
2023/04/20 09:57:39;;;;;;;12.88;12.23;;;;;;;;;;5043309;28;20150;-63
2023/04/20 10:00:05;;;;;;;13.38;12.68;;;;;;;;;;5035159;28;20140;-63
2023/04/20 10:02:32;;;;;;;14.48;13.68;;;;;;;;;;5037417;28;20021;-63
2023/04/20 10:04:58;;;;;;;12.68;12.07;;;;;;;;;;5037680;28;20032;-62
2023/04/20 10:07:25;;;;;;;16.27;15.27;;;;;;;;;;5037928;28;20025;-64
2023/04/20 10:10:11;;;;;;;15.27;14.38;;;;;;;;;;5045901;28;20492;-65
2023/04/20 10:12:47;;;;;;;15.18;14.27;;;;;;;;;;5046008;28;20025;-65
2023/04/20 10:15:12;;;;;;;15.93;14.93;;;;;;;;;;5042141;28;20059;-63
2023/04/20 10:17:38;;;;;;;15.00;14.10;;;;;;;;;;5047199;28;20063;-62
2023/04/20 10:20:03;;;;;;;15.40;14.45;;;;;;;;;;5036161;28;20020;-64
2023/04/20 10:22:32;;;;;;;15.80;14.80;;;;;;;;;;5047422;28;20028;-63
2023/04/20 10:25:12;;;;;;;13.90;13.10;;;;;;;;;;5048558;28;20582;-64
2023/04/20 10:27:38;;;;;;;13.00;12.30;;;;;;;;;;5040258;28;20027;-63
2023/04/20 10:30:10;;;;;;;14.80;13.93;;;;;;;;;;5035705;28;20029;-63
2023/04/20 10:32:35;;;;;;;14.77;13.90;;;;;;;;;;5035462;28;20075;-63
2023/04/20 10:35:01;;;;;;;14.15;13.35;;;;;;;;;;5035921;28;20898;-63
2023/04/20 10:37:27;;;;;;;14.38;13.57;;;;;;;;;;5043893;28;20091;-65
2023/04/20 10:39:53;;;;;;;14.32;13.52;;;;;;;;;;5034711;28;20037;-65
2023/04/20 10:42:18;;;;;;;15.02;14.13;;;;;;;;;;5032423;28;20035;-65
2023/04/20 10:44:47;;;;;;;14.05;13.25;;;;;;;;;;5053403;28;20025;-65
2023/04/20 10:47:13;;;;;;;15.07;14.18;;;;;;;;;;5051387;28;20622;-66
2023/04/20 10:49:39;;;;;;;14.27;13.48;;;;;;;;;;5048224;28;20652;-65
2023/04/20 10:52:04;;;;;;;14.60;13.75;;;;;;;;;;5049674;28;20104;-65
2023/04/20 10:54:35;;;;;;;14.82;13.93;;;;;;;;;;5044309;28;20014;-64
2023/04/20 10:57:01;;;;;;;14.15;13.35;;;;;;;;;;5052904;28;20515;-65
2023/04/20 10:59:27;;;;;;;13.75;12.98;;;;;;;;;;5044256;28;20109;-63
2023/04/20 11:01:54;;;;;;;13.98;13.18;;;;;;;;;;5041498;28;20090;-63
2023/04/20 11:04:28;;;;;;;14.40;13.60;;;;;;;;;;5051475;28;20021;-65
2023/04/20 11:06:54;;;;;;;14.88;13.98;;;;;;;;;;5046353;28;20017;-64
2023/04/20 11:09:22;;;;;;;14.18;13.38;;;;;;;;;;5040713;28;20044;-63
2023/04/20 11:12:03;;;;;;;13.95;13.15;;;;;;;;;;5045045;28;20496;-64
2023/04/20 11:14:33;;;;;;;15.30;14.40;;;;;;;;;;5048898;28;20425;-65
2023/04/20 11:16:58;;;;;;;13.80;13.00;;;;;;;;;;5034376;28;20032;-63
2023/04/20 11:19:28;;;;;;;14.30;13.50;;;;;;;;;;5048278;28;20035;-63
2023/04/20 11:21:54;;;;;;;12.88;12.18;;;;;;;;;;5045232;28;20035;-63
2023/04/20 11:24:23;;;;;;;14.18;13.38;;;;;;;;;;5056417;28;20025;-64
2023/04/20 11:26:49;;;;;;;13.70;12.98;;;;;;;;;;5034875;28;20021;-64
2023/04/20 11:29:34;;;;;;;14.15;13.35;;;;;;;;;;5051769;28;20043;-63
2023/04/20 11:32:00;;;;;;;14.15;13.35;;;;;;;;;;5044599;28;20025;-65
2023/04/20 11:34:25;;;;;;;14.02;13.23;;;;;;;;;;5037480;28;20076;-65
2023/04/20 11:36:51;;;;;;;13.07;12.38;;;;;;;;;;5044101;28;20392;-64
2023/04/20 11:39:26;;;;;;;14.85;13.95;;;;;;;;;;5045001;28;20028;-64
2023/04/20 11:41:52;;;;;;;13.55;12.85;;;;;;;;;;5038179;28;20029;-65
2023/04/20 11:44:19;;;;;;;12.68;12.07;;;;;;;;;;5052821;28;20032;-64
2023/04/20 11:46:45;;;;;;;13.25;12.55;;;;;;;;;;5048379;28;20024;-65
2023/04/20 11:49:10;;;;;;;13.52;12.82;;;;;;;;;;5041965;28;20107;-63
2023/04/20 11:51:36;;;;;;;14.02;13.23;;;;;;;;;;5041949;28;20477;-64
2023/04/20 11:54:01;;;;;;;14.00;13.20;;;;;;;;;;5046141;28;20064;-64
2023/04/20 11:56:26;;;;;;;14.45;13.63;;;;;;;;;;5039941;28;20408;-61
2023/04/20 11:58:52;;;;;;;14.00;13.20;;;;;;;;;;5045536;28;20029;-63
2023/04/20 12:01:17;;;;;;;15.05;14.15;;;;;;;;;;5043194;28;20099;-64
2023/04/20 12:03:42;;;;;;;14.32;13.52;;;;;;;;;;5039223;28;20029;-64
2023/04/20 12:06:08;;;;;;;14.48;13.68;;;;;;;;;;5045382;28;20501;-65
2023/04/20 12:08:33;;;;;;;14.10;13.30;;;;;;;;;;5034487;28;20021;-64
2023/04/20 12:10:58;;;;;;;14.23;13.43;;;;;;;;;;5041064;28;20032;-65
2023/04/20 12:13:24;;;;;;;14.07;13.27;;;;;;;;;;5046023;28;20032;-65
2023/04/20 12:15:49;;;;;;;13.43;12.73;;;;;;;;;;5052333;28;20035;-65
2023/04/20 12:18:14;;;;;;;14.32;13.52;;;;;;;;;;5044377;28;20033;-64
2023/04/20 12:20:40;;;;;;;14.07;13.27;;;;;;;;;;5029198;28;20170;-62
2023/04/20 12:23:05;;;;;;;13.45;12.75;;;;;;;;;;5050449;28;20032;-63
2023/04/20 12:25:31;;;;;;;13.00;12.30;;;;;;;;;;5048724;28;20039;-65
2023/04/20 12:27:56;;;;;;;13.20;12.50;;;;;;;;;;5047281;28;20408;-63
2023/04/20 12:30:21;;;;;;;14.32;13.52;;;;;;;;;;5042226;28;20037;-64
2023/04/20 12:32:47;;;;;;;12.98;12.27;;;;;;;;;;5059299;28;20024;-63
2023/04/20 12:35:12;;;;;;;14.40;13.60;;;;;;;;;;5047331;28;20039;-63
2023/04/20 12:37:37;;;;;;;13.95;13.15;;;;;;;;;;5045153;28;20053;-65
2023/04/20 12:40:05;;;;;;;14.10;13.30;;;;;;;;;;5051329;28;20111;-66
2023/04/20 12:42:30;;;;;;;14.25;13.45;;;;;;;;;;5042058;28;20480;-65
2023/04/20 12:44:55;;;;;;;13.13;12.43;;;;;;;;;;5038892;28;20035;-63
2023/04/20 12:47:21;;;;;;;13.13;12.43;;;;;;;;;;5039573;28;20103;-69
2023/04/20 12:49:46;;;;;;;12.32;11.73;;;;;;;;;;5054933;28;20028;-69
2023/04/20 12:52:11;;;;;;;13.13;12.43;;;;;;;;;;5055081;28;20036;-68
2023/04/20 12:54:37;;;;;;;12.80;12.10;;;;;;;;;;5043259;28;20411;-68
2023/04/20 12:57:02;;;;;;;14.48;13.68;;;;;;;;;;5051020;28;20406;-69
2023/04/20 12:59:28;;;;;;;12.95;12.25;;;;;;;;;;5049259;28;20594;-69
2023/04/20 13:01:53;;;;;;;12.63;12.02;;;;;;;;;;5051305;28;20049;-69
2023/04/20 13:04:19;;;;;;;14.45;13.63;;;;;;;;;;5045379;28;20067;-66
2023/04/20 13:06:44;;;;;;;14.38;13.55;;;;;;;;;;5044868;28;20125;-68
2023/04/20 13:09:09;;;;;;;14.10;13.30;;;;;;;;;;5051885;28;20472;-64
2023/04/20 13:11:35;;;;;;;13.23;12.52;;;;;;;;;;5044861;28;20074;-64
2023/04/20 13:14:00;;;;;;;14.20;13.40;;;;;;;;;;5042212;28;20059;-65
2023/04/20 13:16:25;;;;;;;13.82;13.02;;;;;;;;;;5030512;28;20024;-65
2023/04/20 13:18:51;;;;;;;14.07;13.27;;;;;;;;;;5035306;28;20013;-66
2023/04/20 13:21:16;;;;;;;15.93;14.93;;;;;;;;;;5037309;28;20020;-65
2023/04/20 13:23:41;;;;;;;15.27;14.38;;;;;;;;;;5035459;28;20036;-63
2023/04/20 13:26:07;;;;;;;13.75;12.98;;;;;;;;;;5035901;28;20093;-64
2023/04/20 13:28:32;;;;;;;14.10;13.30;;;;;;;;;;5039153;28;20021;-61
2023/04/20 13:30:58;;;;;;;14.65;13.75;;;;;;;;;;5038974;28;24576;-64
2023/04/20 13:33:23;;;;;;;14.02;13.23;;;;;;;;;;5043189;28;20571;-64
2023/04/20 13:35:48;;;;;;;17.40;16.20;;;;;;;;;;5040202;28;20029;-63
2023/04/20 13:38:14;;;;;;;15.80;14.80;;;;;;;;;;5039870;28;20115;-64
2023/04/20 13:40:39;;;;;;;14.48;13.63;;;;;;;;;;5041665;28;20315;-64
2023/04/20 13:43:04;;;;;;;15.55;14.55;;;;;;;;;;5048467;28;20039;-63
2023/04/20 13:45:30;;;;;;;14.82;13.93;;;;;;;;;;5050457;28;20060;-62
2023/04/20 13:47:55;;;;;;;15.15;14.25;;;;;;;;;;5047040;28;20112;-64
2023/04/20 13:50:21;;;;;;;14.57;13.68;;;;;;;;;;5036195;28;20036;-63
2023/04/20 13:52:46;;;;;;;15.32;14.35;;;;;;;;;;5043676;28;20044;-62
2023/04/20 13:55:12;;;;;;;13.98;13.18;;;;;;;;;;5053763;28;20074;-63
2023/04/20 13:57:37;;;;;;;13.88;13.07;;;;;;;;;;5049904;28;20056;-62
2023/04/20 14:00:02;;;;;;;14.10;13.30;;;;;;;;;;5048462;28;20114;-63
2023/04/20 14:02:28;;;;;;;14.55;13.68;;;;;;;;;;5036834;28;20021;-63
2023/04/20 14:04:53;;;;;;;15.02;14.13;;;;;;;;;;5041509;28;20018;-63
2023/04/20 14:07:19;;;;;;;15.52;14.52;;;;;;;;;;5041630;28;20078;-64
2023/04/20 14:09:44;;;;;;;14.60;13.75;;;;;;;;;;5046110;28;20527;-63